Time;durP1;ratioP1;P1;durP2;ratioP2;P2;SDS_P1;SDS_P2;PMS_P1;PMS_P2;Temp;Humidity;BMP_temperature;BMP_pressure;BME280_temperature;BME280_humidity;BME280_pressure;Samples;Min_cycle;Max_cycle;Signal;HPM_P1;HPM_P2
2024/01/25 00:01:38;;;;;;;3.58;1.95;;;8.40;99.90;;;8.51;80.74;100940.28;4875206;29;20168;-80
2024/01/25 00:04:08;;;;;;;3.33;1.80;;;8.40;99.90;;;8.53;80.91;100930.13;4874686;29;20550;-79
2024/01/25 00:06:38;;;;;;;1.42;0.80;;;8.50;99.90;;;8.44;81.60;100937.50;4869562;29;20224;-81
2024/01/25 00:09:11;;;;;;;9.23;1.13;;;8.40;99.90;;;8.44;81.69;100942.03;4870483;29;20274;-81
2024/01/25 00:11:40;;;;;;;4.45;0.90;;;8.40;99.90;;;8.41;82.28;100966.69;4869064;29;20172;-82
2024/01/25 00:14:10;;;;;;;2.40;1.35;;;8.40;99.90;;;8.38;82.51;100942.78;4868031;29;20323;-81
2024/01/25 00:16:42;;;;;;;1.33;0.70;;;8.30;99.90;;;8.39;82.81;100947.16;4867796;29;20215;-82
2024/01/25 00:19:12;;;;;;;2.40;1.15;;;8.40;99.90;;;8.39;83.01;100963.34;4867991;29;20228;-80
2024/01/25 00:21:44;;;;;;;1.80;0.80;;;8.30;99.90;;;8.33;83.25;100954.13;4867048;29;20203;-82
2024/01/25 00:24:16;;;;;;;2.63;1.40;;;8.30;99.90;;;8.32;83.67;100947.09;4866513;29;20204;-81
2024/01/25 00:26:44;;;;;;;7.07;1.35;;;8.30;99.90;;;8.27;83.20;100950.31;4866429;29;20216;-80
2024/01/25 00:29:15;;;;;;;1.20;0.93;;;8.20;99.90;;;8.36;83.30;100947.53;4855662;29;20202;-81
2024/01/25 00:31:44;;;;;;;3.63;1.63;;;8.30;99.90;;;8.34;83.31;100966.59;4851102;29;20199;-82
2024/01/25 00:34:14;;;;;;;0.90;0.70;;;8.30;99.90;;;8.33;83.85;100973.00;4868869;29;20203;-80
2024/01/25 00:36:45;;;;;;;5.40;2.15;;;8.30;99.90;;;8.33;83.51;100969.50;4866957;29;20283;-82
2024/01/25 00:39:16;;;;;;;5.05;1.33;;;8.30;99.90;;;8.31;84.10;100990.41;4867031;29;20214;-82
2024/01/25 00:41:52;;;;;;;6.53;1.00;;;8.30;99.90;;;8.29;83.66;100988.72;4867711;29;20211;-82
2024/01/25 00:45:14;;;;;;;1.45;1.13;;;8.30;99.90;;;8.33;83.60;100993.75;4868425;29;20608;-79
2024/01/25 00:47:44;;;;;;;1.15;0.93;;;8.30;99.90;;;8.31;83.70;100998.50;4867909;29;20585;-80
2024/01/25 00:50:17;;;;;;;2.83;1.15;;;8.20;99.90;;;8.33;84.17;101004.56;4868165;29;20205;-80
2024/01/25 00:52:47;;;;;;;1.30;1.05;;;8.30;99.90;;;8.31;84.27;100995.78;4868036;29;20200;-81
2024/01/25 00:55:19;;;;;;;5.82;2.15;;;8.30;99.90;;;8.28;84.12;101005.88;4867496;29;20223;-82
2024/01/25 00:57:51;;;;;;;9.07;1.42;;;8.20;99.90;;;8.29;83.98;101013.00;4867956;29;20219;-80
2024/01/25 01:00:23;;;;;;;8.43;2.25;;;8.20;99.90;;;8.33;84.22;101012.63;4867231;29;20187;-81
2024/01/25 01:02:54;;;;;;;1.00;0.85;;;8.30;99.90;;;8.32;84.45;101027.13;4866427;29;20233;-80
2024/01/25 01:05:25;;;;;;;1.20;0.68;;;8.20;99.90;;;8.33;83.81;101028.81;4867517;29;20230;-81
2024/01/25 01:07:55;;;;;;;1.23;0.70;;;8.30;99.90;;;8.31;84.12;101030.84;4867150;29;20254;-82
2024/01/25 01:10:25;;;;;;;0.80;0.50;;;8.30;99.90;;;8.28;83.92;101022.06;4867278;29;20220;-81
2024/01/25 01:12:55;;;;;;;9.93;3.08;;;8.20;99.90;;;8.31;83.84;101004.72;4866404;29;20195;-82
2024/01/25 01:15:24;;;;;;;3.63;1.52;;;8.30;99.90;;;8.34;83.84;101015.13;4866909;29;20207;-82
2024/01/25 01:17:53;;;;;;;1.52;0.93;;;8.30;99.90;;;8.29;83.96;101013.00;4867072;29;20283;-81
2024/01/25 01:20:23;;;;;;;0.80;0.50;;;8.30;99.90;;;8.27;83.60;101009.63;4868573;29;20183;-81
2024/01/25 01:22:54;;;;;;;1.20;0.82;;;8.20;99.90;;;8.25;84.06;101011.66;4867838;29;20697;-81
2024/01/25 01:25:23;;;;;;;5.70;1.45;;;8.20;99.90;;;8.27;83.97;101015.03;4869361;29;20179;-81
2024/01/25 01:27:53;;;;;;;1.58;1.23;;;8.20;99.90;;;8.26;84.13;101023.28;4866830;29;20208;-82
2024/01/25 01:30:23;;;;;;;2.95;0.73;;;8.20;99.90;;;8.21;83.95;101004.97;4869459;29;20286;-81
2024/01/25 01:32:52;;;;;;;13.45;1.15;;;8.20;99.90;;;8.19;84.04;101020.47;4869917;29;20192;-82
2024/01/25 01:35:21;;;;;;;1.38;1.13;;;8.10;99.90;;;8.24;84.28;101019.91;4864401;29;20233;-81
2024/01/25 01:37:51;;;;;;;0.80;0.60;;;8.20;99.90;;;8.23;84.32;101024.47;4868673;29;20220;-82
2024/01/25 01:40:21;;;;;;;5.70;2.15;;;8.20;99.90;;;8.23;84.33;101020.94;4868270;29;20210;-81
2024/01/25 01:42:51;;;;;;;1.05;0.65;;;8.20;99.90;;;8.24;83.97;101022.63;4873235;29;20168;-79
2024/01/25 01:45:22;;;;;;;4.32;0.82;;;8.20;99.90;;;8.22;84.03;101019.28;4873537;29;20218;-81
2024/01/25 01:47:51;;;;;;;4.28;1.00;;;8.20;99.90;;;8.24;83.95;101012.66;4874435;29;20214;-81
2024/01/25 01:50:21;;;;;;;3.30;1.15;;;8.20;99.90;;;8.17;84.17;101025.22;4858007;29;20214;-81
2024/01/25 01:52:52;;;;;;;1.55;0.88;;;8.20;99.90;;;8.17;84.53;101029.78;4875412;29;20219;-81
2024/01/25 01:55:23;;;;;;;1.65;0.60;;;8.10;99.90;;;8.17;84.16;101037.88;4876027;29;20199;-82
2024/01/25 01:57:53;;;;;;;1.33;0.57;;;8.10;99.90;;;8.15;84.12;101016.47;4870872;29;20243;-81
2024/01/25 02:00:27;;;;;;;5.15;1.35;;;8.10;99.90;;;8.15;83.97;101021.84;4865108;29;20214;-82
2024/01/25 02:02:57;;;;;;;4.82;1.65;;;8.10;99.90;;;8.17;84.06;101021.69;4880033;29;20218;-82
2024/01/25 02:05:27;;;;;;;3.22;0.90;;;8.10;99.90;;;8.15;84.28;101038.03;4867417;29;20184;-82
2024/01/25 02:07:58;;;;;;;2.85;1.25;;;8.10;99.90;;;8.16;84.14;101042.41;4867173;29;20230;-81
2024/01/25 02:10:28;;;;;;;5.78;2.45;;;8.10;99.90;;;8.14;84.50;101039.06;4869412;29;20198;-81
2024/01/25 02:12:57;;;;;;;9.80;2.97;;;8.10;99.90;;;8.16;84.38;101045.09;4892124;29;20200;-82
2024/01/25 02:15:28;;;;;;;4.82;1.45;;;8.10;99.90;;;8.07;85.18;101034.59;4893550;29;20263;-78
2024/01/25 02:17:57;;;;;;;1.33;0.50;;;8.00;99.90;;;8.08;84.86;101057.81;4881615;29;20245;-82
2024/01/25 02:20:27;;;;;;;12.68;1.30;;;8.00;99.90;;;8.06;84.62;101049.06;4869762;29;20205;-82
2024/01/25 02:22:58;;;;;;;3.75;1.27;;;8.00;99.90;;;8.04;84.78;101051.94;4867431;29;20570;-82
2024/01/25 02:25:27;;;;;;;3.85;0.80;;;8.00;99.90;;;8.03;85.13;101034.13;4870169;29;20194;-81
2024/01/25 02:27:58;;;;;;;1.13;1.02;;;8.00;99.90;;;7.97;85.69;101047.47;4867860;29;20579;-81
2024/01/25 02:30:27;;;;;;;5.03;0.80;;;7.90;99.90;;;8.04;85.00;101051.09;4866486;29;20218;-81
2024/01/25 02:32:56;;;;;;;1.80;0.90;;;8.00;99.90;;;7.98;84.92;101052.69;4866973;29;20203;-81
2024/01/25 02:35:26;;;;;;;1.23;0.70;;;8.00;99.90;;;8.00;84.91;101049.78;4864398;29;20224;-81
2024/01/25 02:37:56;;;;;;;3.08;1.23;;;7.90;99.90;;;7.96;85.05;101032.31;4868414;29;20242;-81
2024/01/25 02:40:27;;;;;;;1.88;0.95;;;7.90;99.90;;;7.97;85.12;101034.84;4866821;29;20515;-82
2024/01/25 02:42:57;;;;;;;0.98;0.50;;;7.90;99.90;;;7.93;85.21;101055.09;4866265;29;20721;-81
2024/01/25 02:45:26;;;;;;;2.25;1.40;;;7.90;99.90;;;7.94;85.40;101034.38;4868118;29;20757;-82
2024/01/25 02:47:55;;;;;;;7.78;1.45;;;7.80;99.90;;;7.99;84.75;101048.94;4869341;29;20218;-82
2024/01/25 02:50:28;;;;;;;4.38;2.85;;;7.90;99.90;;;7.96;84.97;101041.25;4869471;29;20199;-82
2024/01/25 02:52:59;;;;;;;4.45;0.88;;;;;;;7.96;85.19;101027.78;4872341;29;20278;-80
2024/01/25 02:55:29;;;;;;;5.82;0.90;;;7.90;99.90;;;7.93;85.64;101038.09;4887926;29;20205;-81
2024/01/25 02:57:57;;;;;;;5.13;1.02;;;7.80;99.90;;;7.88;84.84;101068.25;4887189;29;20613;-81
2024/01/25 03:00:27;;;;;;;2.17;1.92;;;7.90;99.90;;;7.96;84.72;101051.19;4873309;29;20203;-81
2024/01/25 03:02:56;;;;;;;2.13;1.35;;;7.90;99.90;;;7.92;84.85;101048.03;4867916;29;20217;-80
2024/01/25 03:05:29;;;;;;;2.38;0.75;;;7.90;99.90;;;7.95;84.38;101038.72;4859877;29;20200;-81
2024/01/25 03:07:59;;;;;;;4.20;0.80;;;7.90;99.90;;;7.94;84.96;101045.97;4860975;29;20679;-80
2024/01/25 03:10:31;;;;;;;3.85;0.93;;;7.90;99.90;;;7.93;84.42;101049.69;4868481;29;20199;-82
2024/01/25 03:13:00;;;;;;;2.78;2.55;;;;;;;7.93;84.14;101047.00;4869213;29;20589;-81
2024/01/25 03:15:29;;;;;;;0.90;0.70;;;7.80;99.90;;;7.93;83.71;101046.16;4869405;29;20258;-81
2024/01/25 03:17:58;;;;;;;4.80;1.00;;;7.90;99.90;;;7.94;83.51;101047.84;4868345;29;20237;-80
2024/01/25 03:20:27;;;;;;;4.20;2.17;;;7.90;99.90;;;7.95;82.92;101039.56;4868218;29;20195;-81
2024/01/25 03:22:57;;;;;;;1.55;0.80;;;7.90;99.90;;;7.99;83.44;101048.94;4867922;29;20267;-81
2024/01/25 03:25:26;;;;;;;9.32;1.63;;;7.90;99.90;;;7.94;83.27;101045.97;4866703;29;20210;-80
2024/01/25 03:27:57;;;;;;;2.00;0.68;;;7.90;99.90;;;7.92;83.08;101048.03;4859755;29;20684;-80
2024/01/25 03:30:26;;;;;;;1.10;0.70;;;7.80;99.90;;;7.92;83.15;101037.25;4850166;29;20185;-81
2024/01/25 03:32:56;;;;;;;7.82;2.03;;;7.80;99.90;;;7.88;83.11;101044.03;4869170;29;20191;-81
2024/01/25 03:35:25;;;;;;;2.40;2.20;;;7.80;99.90;;;7.88;83.01;101056.66;4874763;29;20197;-80
2024/01/25 03:37:55;;;;;;;3.65;0.77;;;7.80;99.90;;;7.90;82.82;101050.03;4880021;29;20227;-79
2024/01/25 03:40:28;;;;;;;3.30;1.90;;;7.80;99.90;;;7.88;82.34;101062.88;4885321;29;20182;-79
2024/01/25 03:42:57;;;;;;;5.68;1.58;;;7.80;99.90;;;7.91;82.60;101046.34;4872810;29;20196;-80
2024/01/25 03:45:46;;;;;;;2.78;1.85;;;7.80;99.90;;;7.88;82.20;101060.19;4867094;29;20187;-81
2024/01/25 03:56:36;;;;;;;10.73;3.15;;;7.80;99.90;;;7.87;83.12;101066.59;4881039;29;20233;-80
2024/01/25 04:19:34;;;;;;;0.90;0.50;;;7.70;99.90;;;7.76;83.45;101102.03;4862268;29;20238;-82
2024/01/25 04:22:03;;;;;;;2.63;1.88;;;7.70;99.90;;;7.79;82.64;101107.06;4867312;29;20241;-81
2024/01/25 04:24:34;;;;;;;8.70;2.08;;;7.70;99.90;;;7.77;82.73;101114.47;4854829;29;20218;-83
2024/01/25 04:27:03;;;;;;;6.32;2.15;;;7.70;99.90;;;7.78;82.58;101116.16;4867888;29;20251;-81
2024/01/25 04:29:33;;;;;;;5.30;1.45;;;7.70;99.90;;;7.73;82.92;101114.00;4869231;29;20195;-79
2024/01/25 04:32:01;;;;;;;3.45;1.98;;;7.70;99.90;;;7.80;82.92;101120.34;4869322;29;20199;-81
2024/01/25 04:34:32;;;;;;;3.20;1.10;;;7.70;99.90;;;7.70;83.46;101125.13;4871538;29;20202;-82
2024/01/25 04:37:02;;;;;;;9.75;1.58;;;7.60;99.90;;;7.72;84.11;101124.94;4858089;29;20219;-81
2024/01/25 04:39:31;;;;;;;2.88;0.63;;;7.60;99.90;;;7.73;83.95;101123.94;4861727;29;20240;-80
2024/01/25 04:42:01;;;;;;;1.45;0.80;;;;;;;7.71;83.74;101115.19;4860846;29;20191;-79
2024/01/25 04:44:30;;;;;;;1.17;1.08;;;7.60;99.90;;;7.70;84.11;101129.66;4881364;29;20238;-80
2024/01/25 04:46:59;;;;;;;3.25;1.17;;;7.60;99.90;;;7.68;84.31;101134.41;4872892;29;20227;-81
2024/01/25 04:49:29;;;;;;;8.32;1.20;;;7.60;99.90;;;7.67;84.36;101121.94;4879560;29;20254;-81
2024/01/25 04:52:00;;;;;;;9.98;1.23;;;7.60;99.90;;;7.71;84.26;101142.13;4873737;29;20195;-81
2024/01/25 04:54:35;;;;;;;16.00;1.80;;;7.60;99.90;;;7.78;84.27;101170.03;4874558;29;20182;-81
2024/01/25 04:57:06;;;;;;;1.40;1.17;;;;;;;7.71;84.02;101158.28;4870519;29;20307;-82
2024/01/25 04:59:37;;;;;;;1.52;1.40;;;7.60;99.90;;;7.77;83.37;101149.50;4882937;29;20207;-80
2024/01/25 05:02:06;;;;;;;1.13;1.02;;;7.70;99.90;;;7.71;83.14;101160.97;4883196;29;20163;-81
2024/01/25 05:04:36;;;;;;;1.33;1.23;;;7.70;99.90;;;7.70;83.19;101161.97;4883438;29;20312;-80
2024/01/25 05:07:08;;;;;;;4.75;2.45;;;7.70;99.90;;;7.73;83.69;101161.66;4882296;29;20237;-79
2024/01/25 05:09:40;;;;;;;0.90;0.52;;;7.70;99.90;;;7.68;84.05;101167.56;4884727;29;20193;-81
2024/01/25 05:12:15;;;;;;;1.20;1.10;;;7.60;99.90;;;7.65;84.19;101154.44;4884168;29;20174;-80
2024/01/25 05:14:44;;;;;;;1.50;0.90;;;7.60;99.90;;;7.65;83.84;101148.25;4877206;29;20215;-80
2024/01/25 05:17:14;;;;;;;3.28;1.50;;;7.60;99.90;;;7.63;84.17;101142.19;4874947;29;20275;-79
2024/01/25 05:19:43;;;;;;;2.30;1.10;;;7.60;99.90;;;7.64;84.47;101168.09;4875400;29;20248;-81
2024/01/25 05:22:15;;;;;;;3.50;1.65;;;7.60;99.90;;;7.63;84.36;101161.03;4870830;29;20203;-82
2024/01/25 05:24:46;;;;;;;1.05;0.40;;;7.60;99.90;;;7.65;84.25;101191.34;4875129;29;20228;-79
2024/01/25 05:31:12;;;;;;;5.82;2.97;;;7.60;99.90;;;7.61;84.93;101190.81;4872059;29;20210;-82
2024/01/25 05:33:42;;;;;;;5.70;1.73;;;7.60;99.90;;;7.66;84.68;101198.38;4873469;29;20195;-81
2024/01/25 05:36:12;;;;;;;5.05;1.45;;;7.60;99.90;;;7.63;84.50;101206.81;4858157;29;20199;-79
2024/01/25 05:38:43;;;;;;;1.75;0.57;;;7.60;99.90;;;7.64;83.96;101213.91;4864001;29;20225;-80
2024/01/25 05:41:20;;;;;;;3.17;1.63;;;7.60;99.90;;;7.63;83.80;101209.50;4873238;29;20213;-81
2024/01/25 05:43:49;;;;;;;2.60;1.25;;;7.60;99.90;;;7.60;83.61;101210.69;4872611;29;20195;-82
2024/01/25 05:46:19;;;;;;;6.68;0.80;;;7.60;99.90;;;7.60;83.00;101212.56;4872555;29;20199;-81
2024/01/25 05:48:49;;;;;;;0.80;0.50;;;7.60;99.90;;;7.62;82.95;101215.91;4873375;29;20210;-80
2024/01/25 05:51:18;;;;;;;1.10;0.73;;;7.60;99.90;;;7.62;82.44;101235.59;4872473;29;20235;-82
2024/01/25 05:53:49;;;;;;;0.90;0.60;;;;;;;7.67;82.27;101221.63;4871952;29;20203;-84
2024/01/25 05:56:22;;;;;;;4.05;2.25;;;7.60;99.90;;;7.67;82.40;101232.38;4873138;29;20186;-82
2024/01/25 05:58:52;;;;;;;0.95;0.55;;;7.60;99.90;;;7.64;82.12;101232.75;4873060;29;20202;-81
2024/01/25 06:01:21;;;;;;;1.10;0.85;;;7.60;99.90;;;7.66;82.71;101228.00;4886042;29;20236;-79
2024/01/25 06:03:51;;;;;;;0.90;0.70;;;7.60;99.90;;;7.64;81.94;101244.38;4873230;29;20258;-80
2024/01/25 06:06:21;;;;;;;5.00;2.35;;;7.60;99.90;;;7.66;82.17;101233.41;4871768;29;20199;-81
2024/01/25 06:08:52;;;;;;;1.30;0.80;;;7.60;99.90;;;7.67;82.31;101254.78;4879405;29;20251;-81
2024/01/25 06:11:38;;;;;;;2.50;0.90;;;7.60;99.90;;;7.69;82.04;101258.16;4874289;29;20191;-83
2024/01/25 06:14:08;;;;;;;3.08;0.77;;;7.60;99.90;;;7.69;81.58;101257.31;4874800;29;20220;-81
2024/01/25 06:16:38;;;;;;;1.20;0.68;;;7.60;99.90;;;7.69;81.79;101263.53;4874330;29;20209;-81
2024/01/25 06:19:11;;;;;;;0.80;0.40;;;7.60;99.90;;;7.66;81.47;101254.94;4867645;29;20567;-80
2024/01/25 06:21:40;;;;;;;4.30;3.20;;;7.60;99.90;;;7.74;81.68;101249.53;4876417;29;20574;-81
2024/01/25 06:24:11;;;;;;;2.53;2.33;;;7.60;99.90;;;7.72;81.76;101273.09;4871109;29;20195;-81
2024/01/25 06:26:40;;;;;;;10.38;1.80;;;7.60;99.90;;;7.68;80.83;101251.06;4874029;29;20204;-79
2024/01/25 06:29:09;;;;;;;1.75;0.95;;;7.60;99.90;;;7.68;81.72;101271.78;4879296;29;20299;-80
2024/01/25 06:31:43;;;;;;;1.02;0.88;;;7.60;99.90;;;7.65;81.57;101272.16;4876863;29;20209;-81
2024/01/25 06:34:14;;;;;;;5.40;3.58;;;7.60;99.90;;;7.64;81.38;101265.06;4875045;29;20167;-81
2024/01/25 06:36:51;;;;;;;3.75;1.70;;;7.60;99.90;;;7.66;81.58;101280.03;4879515;29;20199;-82
2024/01/25 06:39:22;;;;;;;0.80;0.50;;;7.60;99.90;;;7.65;81.08;101285.63;4878467;29;20266;-80
2024/01/25 06:41:56;;;;;;;2.78;2.35;;;7.60;99.90;;;7.65;81.30;101285.63;4876069;29;20178;-82
2024/01/25 06:44:29;;;;;;;0.80;0.50;;;7.60;99.90;;;7.67;81.15;101280.88;4871720;29;20457;-81
2024/01/25 06:46:59;;;;;;;0.80;0.50;;;7.60;99.90;;;7.60;81.20;101296.88;4875941;29;20227;-81
2024/01/25 06:49:28;;;;;;;6.00;0.80;;;7.60;99.90;;;7.66;81.43;101311.50;4879215;29;20219;-81
2024/01/25 06:52:00;;;;;;;6.40;1.17;;;7.60;99.90;;;7.63;81.13;101317.25;4881905;29;20183;-81
2024/01/25 06:54:31;;;;;;;4.63;0.88;;;7.60;99.90;;;7.63;81.57;101317.25;4888898;29;20222;-79
2024/01/25 06:57:02;;;;;;;2.28;1.63;;;7.60;99.90;;;7.65;81.67;101315.25;4888641;29;20227;-80
2024/01/25 06:59:31;;;;;;;4.90;2.38;;;7.60;99.90;;;7.60;81.52;101323.00;4865672;29;20267;-81
2024/01/25 07:02:02;;;;;;;1.70;0.90;;;7.60;99.90;;;7.63;81.46;101319.94;4877350;29;20196;-81
2024/01/25 07:04:33;;;;;;;3.05;0.93;;;7.60;99.90;;;7.63;81.62;101317.25;4875589;29;20222;-83
2024/01/25 07:07:03;;;;;;;5.97;0.77;;;7.60;99.90;;;7.64;81.82;101310.84;4877175;29;20283;-82
2024/01/25 07:09:36;;;;;;;4.93;2.35;;;7.60;99.90;;;7.65;81.35;101326.03;4880972;29;20210;-81
2024/01/25 07:12:06;;;;;;;1.33;0.57;;;7.60;99.90;;;7.73;81.72;101351.06;4884919;29;20186;-80
2024/01/25 07:14:37;;;;;;;2.22;1.48;;;7.60;99.90;;;7.76;80.84;101363.34;4900746;29;20214;-80
2024/01/25 07:17:06;;;;;;;0.90;0.80;;;7.70;99.90;;;7.70;81.33;101378.34;4884378;29;20421;-80
2024/01/25 07:19:35;;;;;;;2.60;0.70;;;7.70;99.90;;;7.72;80.85;101359.31;4874732;29;20216;-81
2024/01/25 07:22:04;;;;;;;1.98;1.55;;;7.70;99.90;;;7.73;80.95;101367.25;4876320;29;20203;-81
2024/01/25 07:24:35;;;;;;;4.30;0.90;;;7.70;99.90;;;7.74;81.33;101362.69;4885390;29;20255;-79
2024/01/25 07:27:04;;;;;;;10.48;1.10;;;7.70;99.90;;;7.67;81.92;101362.53;4880713;29;20234;-79
2024/01/25 07:29:33;;;;;;;3.85;0.82;;;7.60;99.90;;;7.73;82.19;101361.84;4864045;29;20620;-78
2024/01/25 07:32:15;;;;;;;1.70;1.15;;;7.70;99.90;;;7.66;82.67;101363.53;4863124;29;20251;-81
2024/01/25 07:34:44;;;;;;;1.88;1.42;;;7.60;99.90;;;7.78;82.71;101388.28;4869611;29;20219;-81
2024/01/25 07:37:15;;;;;;;1.25;0.80;;;7.70;99.90;;;7.78;82.90;101374.81;4882950;29;20212;-78
2024/01/25 07:39:46;;;;;;;9.90;2.60;;;7.70;99.90;;;7.71;83.11;101377.34;4884043;29;20211;-81
2024/01/25 07:42:15;;;;;;;1.88;1.40;;;7.70;99.90;;;7.74;82.83;101378.84;4884007;29;20179;-78
2024/01/25 07:44:43;;;;;;;1.88;1.10;;;7.60;99.90;;;7.70;83.24;101372.09;4883421;29;20232;-78
2024/01/25 07:47:13;;;;;;;1.00;0.90;;;7.60;99.90;;;7.71;82.74;101379.19;4883707;29;20206;-78
2024/01/25 07:49:42;;;;;;;1.30;1.00;;;7.60;99.90;;;7.77;83.05;101383.88;4878538;29;20251;-82
2024/01/25 07:52:11;;;;;;;2.15;0.77;;;7.70;99.90;;;7.68;82.30;101385.78;4882248;29;20211;-82
2024/01/25 07:54:40;;;;;;;5.68;1.20;;;7.70;99.90;;;7.66;82.50;101382.41;4873139;29;20213;-84
2024/01/25 07:57:11;;;;;;;1.00;0.80;;;7.60;99.90;;;7.74;82.47;101385.09;4869719;29;20253;-82
2024/01/25 07:59:40;;;;;;;0.90;0.70;;;7.60;99.90;;;7.74;81.65;101405.81;4873921;29;20221;-82
2024/01/25 08:02:09;;;;;;;1.17;0.95;;;7.70;99.90;;;7.81;81.32;101431.03;4877677;29;20209;-79
2024/01/25 08:04:38;;;;;;;1.23;0.95;;;7.70;99.90;;;7.72;81.10;101419.44;4875918;29;20222;-81
2024/01/25 08:07:08;;;;;;;1.75;1.00;;;;;;;7.73;81.56;101404.09;4877604;29;20243;-81
2024/01/25 08:09:37;;;;;;;5.25;0.90;;;7.70;99.90;;;7.67;81.45;101412.88;4879576;29;20273;-81
2024/01/25 08:12:07;;;;;;;2.45;1.08;;;7.60;99.90;;;7.74;81.97;101398.56;4871961;29;20298;-81
2024/01/25 08:14:37;;;;;;;4.93;1.77;;;7.60;99.90;;;7.83;81.19;101399.38;4864742;29;20195;-82
2024/01/25 08:17:07;;;;;;;1.35;0.70;;;7.80;99.90;;;7.74;81.53;101417.41;4876837;29;20230;-81
2024/01/25 08:19:36;;;;;;;0.80;0.50;;;7.70;99.90;;;7.64;81.36;101419.44;4885995;29;20214;-80
2024/01/25 08:22:10;;;;;;;0.90;0.50;;;7.60;99.90;;;7.64;82.38;101416.75;4879523;29;20405;-83
2024/01/25 08:24:41;;;;;;;8.02;1.23;;;7.60;99.90;;;7.79;82.01;101425.00;4880670;29;20205;-83
2024/01/25 08:27:10;;;;;;;1.23;1.13;;;7.70;99.90;;;7.75;81.87;101450.56;4877057;29;20240;-81
2024/01/25 08:29:44;;;;;;;0.90;0.50;;;7.70;99.90;;;7.73;81.75;101468.78;4877557;29;20198;-79
2024/01/25 08:32:13;;;;;;;2.88;1.10;;;7.70;99.90;;;7.74;81.82;101465.06;4881235;29;20207;-79
2024/01/25 08:34:42;;;;;;;4.35;0.98;;;7.70;99.90;;;7.81;81.65;101471.44;4880725;29;20179;-77
2024/01/25 08:37:12;;;;;;;4.38;1.45;;;7.70;99.90;;;7.87;81.36;101468.06;4877717;29;20588;-80
2024/01/25 08:39:41;;;;;;;3.85;1.55;;;7.80;99.90;;;7.89;81.43;101476.81;4868684;29;20208;-81
2024/01/25 08:42:10;;;;;;;18.17;2.10;;;7.80;99.90;;;8.00;81.12;101471.06;4868019;29;20229;-79
2024/01/25 08:44:40;;;;;;;9.98;1.95;;;7.90;99.90;;;7.85;80.99;101484.41;4885147;29;20199;-80
2024/01/25 08:47:11;;;;;;;3.65;0.95;;;7.80;99.90;;;7.91;81.28;101487.44;4880668;29;20296;-82
2024/01/25 08:49:40;;;;;;;8.98;1.05;;;7.80;99.90;;;7.84;80.81;101474.63;4850001;29;20177;-82
2024/01/25 08:52:15;;;;;;;7.85;0.60;;;7.80;99.90;;;7.81;81.35;101472.28;4867717;29;20199;-81
2024/01/25 08:54:44;;;;;;;1.13;0.90;;;7.80;99.90;;;7.90;81.73;101473.13;4867228;29;20187;-81
2024/01/25 08:57:14;;;;;;;8.85;4.78;;;7.80;99.90;;;8.05;81.13;101479.50;4881396;29;20285;-80
2024/01/25 08:59:44;;;;;;;3.53;1.75;;;;;;;8.00;81.10;101484.56;4869462;29;20191;-81
2024/01/25 09:02:14;;;;;;;1.50;1.13;;;7.90;99.90;;;8.07;80.95;101482.88;4865841;29;20206;-79
2024/01/25 09:04:43;;;;;;;6.88;1.80;;;8.00;99.90;;;8.03;80.79;101497.72;4866505;29;20209;-81
2024/01/25 09:07:13;;;;;;;3.38;3.08;;;8.00;99.90;;;8.00;81.09;101503.41;4865813;29;20238;-81
2024/01/25 09:09:45;;;;;;;1.52;0.98;;;7.90;99.90;;;8.00;81.44;101518.75;4883787;29;20275;-82
2024/01/25 09:12:21;;;;;;;9.35;1.27;;;7.90;99.90;;;7.91;81.09;101528.69;4886262;29;20207;-81
2024/01/25 09:15:31;;;;;;;2.25;1.00;;;7.90;99.90;;;7.91;81.43;101517.06;4857724;29;20208;-80
2024/01/25 09:18:21;;;;;;;4.32;1.35;;;7.80;99.90;;;7.85;81.35;101527.53;4882901;29;20247;-79
2024/01/25 09:20:49;;;;;;;4.47;1.10;;;7.80;99.90;;;7.95;81.58;101510.34;4874848;29;20635;-79
2024/01/25 09:23:20;;;;;;;2.85;1.13;;;7.90;99.90;;;7.92;81.82;101527.69;4868507;29;20215;-80
2024/01/25 09:25:48;;;;;;;0.90;0.60;;;7.80;99.90;;;7.95;81.88;101543.50;4868106;29;20209;-81
2024/01/25 09:28:18;;;;;;;1.77;1.67;;;7.90;99.90;;;7.87;82.61;101540.84;4866447;29;20222;-79
2024/01/25 09:30:47;;;;;;;1.33;0.93;;;7.90;99.90;;;7.94;82.90;101536.44;4881530;29;20210;-82
2024/01/25 09:33:18;;;;;;;4.25;2.15;;;7.80;99.90;;;7.96;81.79;101555.16;4865846;29;20203;-81
2024/01/25 09:36:02;;;;;;;4.10;0.90;;;7.90;99.90;;;7.95;82.27;101543.50;4858238;29;20208;-80
2024/01/25 09:38:32;;;;;;;1.33;0.50;;;7.90;99.90;;;7.88;82.03;101547.91;4863033;29;20267;-81
2024/01/25 09:41:02;;;;;;;1.02;0.90;;;7.80;99.90;;;7.80;82.31;101545.19;4867546;29;20224;-81
2024/01/25 09:43:32;;;;;;;7.25;1.60;;;7.70;99.90;;;7.82;83.29;101548.59;4872777;29;20203;-81
2024/01/25 09:46:05;;;;;;;1.20;0.90;;;7.80;99.90;;;7.90;82.90;101561.19;4851165;29;20237;-79
2024/01/25 09:48:36;;;;;;;5.05;3.47;;;7.80;99.90;;;7.96;82.63;101557.84;4862517;29;20226;-79
2024/01/25 09:51:06;;;;;;;2.85;1.13;;;7.80;99.90;;;7.98;82.15;101563.91;4867005;29;20627;-79
2024/01/25 09:53:35;;;;;;;6.18;1.88;;;7.90;99.90;;;7.99;82.42;101569.13;4856459;29;20203;-80
2024/01/25 09:56:09;;;;;;;5.07;2.20;;;7.90;99.90;;;8.01;82.31;101577.88;4871277;29;20194;-81
2024/01/25 09:58:41;;;;;;;3.55;1.42;;;7.90;99.90;;;8.00;81.87;101588.81;4870697;29;20211;-81
2024/01/25 10:01:12;;;;;;;2.25;1.50;;;7.90;99.90;;;8.06;80.78;101582.78;4871313;29;20209;-80
2024/01/25 10:03:44;;;;;;;2.22;1.10;;;8.00;99.90;;;8.11;81.03;101580.41;4888614;29;20206;-81
2024/01/25 10:06:15;;;;;;;1.10;0.57;;;8.00;99.90;;;8.02;81.44;101582.28;4875143;29;20244;-80
2024/01/25 10:08:46;;;;;;;2.75;0.82;;;8.00;99.90;;;7.97;82.00;101584.63;4878375;29;20267;-78
2024/01/25 10:11:18;;;;;;;9.98;1.45;;;7.90;99.90;;;8.15;81.69;101593.38;4883752;29;20217;-80
2024/01/25 10:13:50;;;;;;;1.42;0.73;;;8.00;99.90;;;7.91;81.22;101606.84;4884238;29;20265;-80
2024/01/25 10:16:20;;;;;;;4.88;2.58;;;7.90;99.90;;;7.95;81.74;101602.81;4886577;29;20187;-79
2024/01/25 10:18:51;;;;;;;1.63;0.88;;;7.90;99.90;;;8.02;80.75;101603.84;4886336;29;20229;-79
2024/01/25 10:21:22;;;;;;;2.25;1.35;;;7.90;99.90;;;7.98;80.27;101607.03;4886671;29;20243;-79
2024/01/25 10:23:54;;;;;;;1.67;1.13;;;7.90;99.90;;;8.08;80.81;101607.72;4904680;29;20191;-79
2024/01/25 10:26:28;;;;;;;3.08;0.75;;;8.00;99.90;;;8.08;81.16;101605.88;4907102;29;20187;-77
2024/01/25 10:28:57;;;;;;;1.15;0.98;;;8.00;99.90;;;8.33;80.57;101603.19;4904934;29;20178;-77
2024/01/25 10:31:31;;;;;;;3.75;0.70;;;8.10;99.90;;;8.34;79.81;101591.38;4887953;29;20163;-78
2024/01/25 10:34:03;;;;;;;6.90;0.85;;;8.20;99.90;;;8.28;79.67;101603.63;4888230;29;20185;-77
2024/01/25 10:36:35;;;;;;;6.70;1.10;;;8.20;99.90;;;8.31;79.88;101610.59;4888111;29;20193;-77
2024/01/25 10:39:09;;;;;;;2.00;0.60;;;8.20;99.90;;;8.14;81.36;101602.47;4888256;29;20168;-76
2024/01/25 10:41:41;;;;;;;4.28;1.45;;;8.10;99.90;;;8.28;80.82;101620.66;4888217;29;20198;-77
2024/01/25 10:44:11;;;;;;;0.80;0.40;;;8.20;99.90;;;8.11;80.38;101619.00;4888253;29;20164;-79
2024/01/25 10:54:27;;;;;;;0.90;0.63;;;8.10;99.90;;;8.43;77.88;101622.69;4891871;29;20212;-80
2024/01/25 10:57:42;;;;;;;1.25;0.60;;;8.20;99.90;;;8.41;77.58;101619.34;4886994;29;20215;-80
2024/01/25 11:00:24;;;;;;;2.65;0.90;;;8.30;99.90;;;8.31;77.29;101638.41;4883100;29;20222;-77
2024/01/25 11:03:03;;;;;;;1.80;1.70;;;8.30;99.20;;;8.42;77.84;101631.84;4873232;29;20221;-80
2024/01/25 11:05:34;;;;;;;1.40;0.70;;;8.30;99.90;;;8.32;78.17;101626.63;4871548;29;20183;-79
2024/01/25 11:08:03;;;;;;;4.30;2.05;;;8.30;99.90;;;8.29;77.73;101629.59;4871757;29;20223;-81
2024/01/25 11:10:37;;;;;;;1.70;1.45;;;8.30;99.70;;;8.37;77.45;101626.09;4872940;29;20198;-80
2024/01/25 11:13:22;;;;;;;9.25;0.85;;;8.30;99.70;;;8.33;77.67;101628.28;4872975;29;20203;-81
2024/01/25 11:15:55;;;;;;;2.55;1.77;;;8.30;99.60;;;8.35;77.94;101625.41;4871647;29;20188;-82
2024/01/25 11:18:26;;;;;;;1.65;1.55;;;8.20;99.90;;;8.33;76.01;101632.84;4871277;29;20259;-79
2024/01/25 11:21:02;;;;;;;0.90;0.73;;;8.30;98.30;;;8.25;77.10;101626.41;4869388;29;20198;-80
2024/01/25 11:23:33;;;;;;;1.10;0.80;;;8.20;99.00;;;8.39;77.03;101630.31;4868435;29;20206;-80
2024/01/25 11:26:02;;;;;;;3.30;1.38;;;8.30;99.30;;;8.51;76.48;101628.09;4866481;29;20211;-79